Time,TemperatureF,DewpointF,PressureIn,WindDirection,WindDirectionDegrees,WindSpeedMPH,WindSpeedGustMPH,Humidity,HourlyPrecipIn,Conditions,Clouds,dailyrainin,SoftwareType,DateUTC
2013-05-01 00:13:00,57.6,52.0,30.21,ESE,105,0.0,1.0,80,0.00,,,0.00,weatherlink.com 1.10,2013-05-01 04:13:00,
2013-05-01 00:28:00,57.0,51.0,30.22,West,267,0.0,1.0,81,0.00,,,0.00,weatherlink.com 1.10,2013-05-01 04:28:00,
2013-05-01 00:43:00,56.7,51.0,30.22,NNW,335,1.0,2.0,81,0.00,,,0.00,weatherlink.com 1.10,2013-05-01 04:43:00,
2013-05-01 00:58:00,56.8,51.0,30.22,NNE,27,0.0,1.0,81,0.00,,,0.00,weatherlink.com 1.10,2013-05-01 04:58:00,
2013-05-01 01:13:00,56.5,51.0,30.22,NE,43,0.0,1.0,81,0.00,,,0.00,weatherlink.com 1.10,2013-05-01 05:13:00,
2013-05-01 01:28:00,56.5,51.0,30.22,East,87,0.0,6.0,81,0.00,,,0.00,weatherlink.com 1.10,2013-05-01 05:28:00,
2013-05-01 01:43:00,56.7,51.0,30.22,ENE,75,0.0,2.0,80,0.00,,,0.00,weatherlink.com 1.10,2013-05-01 05:43:00,
2013-05-01 01:58:00,56.3,50.0,30.22,ESE,106,2.0,2.0,80,0.00,,,0.00,weatherlink.com 1.10,2013-05-01 05:58:00,
2013-05-01 02:13:00,56.2,50.0,30.22,NNE,31,0.0,4.0,80,0.00,,,0.00,weatherlink.com 1.10,2013-05-01 06:13:00,
2013-05-01 02:28:00,55.9,50.0,30.22,SW,232,0.0,6.0,81,0.00,,,0.00,weatherlink.com 1.10,2013-05-01 06:28:00,
2013-05-01 02:43:00,55.8,50.0,30.22,WSW,240,1.0,3.0,80,0.00,,,0.00,weatherlink.com 1.10,2013-05-01 06:43:00,
2013-05-01 02:58:00,55.3,50.0,30.22,ENE,70,0.0,1.0,81,0.00,,,0.00,weatherlink.com 1.10,2013-05-01 06:58:00,
2013-05-01 03:13:00,55.0,49.0,30.23,East,79,1.0,3.0,81,0.00,,,0.00,weatherlink.com 1.10,2013-05-01 07:13:00,
2013-05-01 03:28:00,54.1,49.0,30.22,ESE,107,0.0,1.0,82,0.00,,,0.00,weatherlink.com 1.10,2013-05-01 07:28:00,
2013-05-01 03:43:00,53.2,48.0,30.22,NNE,33,0.0,1.0,83,0.00,,,0.00,weatherlink.com 1.10,2013-05-01 07:43:00,
2013-05-01 03:58:00,53.2,48.0,30.22,NE,44,0.0,2.0,83,0.00,,,0.00,weatherlink.com 1.10,2013-05-01 07:58:00,
2013-05-01 04:13:00,53.1,48.0,30.23,East,95,0.0,1.0,83,0.00,,,0.00,weatherlink.com 1.10,2013-05-01 08:13:00,
2013-05-01 04:28:00,52.4,47.0,30.23,ENE,72,0.0,1.0,83,0.00,,,0.00,weatherlink.com 1.10,2013-05-01 08:28:00,
2013-05-01 04:43:00,52.1,47.0,30.24,ENE,74,0.0,0.0,84,0.00,,,0.00,weatherlink.com 1.10,2013-05-01 08:43:00,
2013-05-01 04:58:00,51.7,47.0,30.24,ENE,74,0.0,0.0,85,0.00,,,0.00,weatherlink.com 1.10,2013-05-01 08:58:00,
2013-05-01 05:13:00,51.4,47.0,30.24,ENE,73,0.0,0.0,86,0.00,,,0.00,weatherlink.com 1.10,2013-05-01 09:13:00,
2013-05-01 05:28:00,51.2,47.0,30.25,ENE,72,0.0,1.0,86,0.00,,,0.00,weatherlink.com 1.10,2013-05-01 09:28:00,
2013-05-01 05:43:00,51.2,47.0,30.25,NE,34,0.0,1.0,85,0.00,,,0.00,weatherlink.com 1.10,2013-05-01 09:43:00,
2013-05-01 05:58:00,51.6,46.0,30.25,NE,34,0.0,1.0,82,0.00,,,0.00,weatherlink.com 1.10,2013-05-01 09:58:00,
2013-05-01 06:13:00,51.8,45.0,30.26,East,89,0.0,3.0,78,0.00,,,0.00,weatherlink.com 1.10,2013-05-01 10:13:00,
2013-05-01 06:28:00,52.4,45.0,30.27,NE,42,0.0,1.0,76,0.00,,,0.00,weatherlink.com 1.10,2013-05-01 10:28:00,
2013-05-01 06:43:00,52.4,45.0,30.28,ENE,63,0.0,1.0,76,0.00,,,0.00,weatherlink.com 1.10,2013-05-01 10:43:00,
2013-05-01 06:58:00,52.1,45.0,30.29,East,88,0.0,1.0,77,0.00,,,0.00,weatherlink.com 1.10,2013-05-01 10:58:00,
2013-05-01 07:13:00,52.4,45.0,30.29,North,352,0.0,1.0,75,0.00,,,0.00,weatherlink.com 1.10,2013-05-01 11:13:00,
2013-05-01 07:29:00,53.5,45.0,30.30,North,356,0.0,1.0,74,0.00,,,0.00,weatherlink.com 1.10,2013-05-01 11:29:00,
2013-05-01 07:44:00,55.4,45.0,30.30,East,79,1.0,2.0,67,0.00,,,0.00,weatherlink.com 1.10,2013-05-01 11:44:00,
2013-05-01 07:59:00,56.8,43.0,30.30,East,89,4.0,6.0,60,0.00,,,0.00,weatherlink.com 1.10,2013-05-01 11:59:00,
2013-05-01 08:14:00,57.9,43.0,30.31,East,89,0.0,3.0,58,0.00,,,0.00,weatherlink.com 1.10,2013-05-01 12:14:00,
2013-05-01 08:29:00,58.6,42.0,30.31,NE,53,2.0,5.0,55,0.00,,,0.00,weatherlink.com 1.10,2013-05-01 12:29:00,
2013-05-01 08:44:00,59.8,43.0,30.31,ESE,107,0.0,5.0,55,0.00,,,0.00,weatherlink.com 1.10,2013-05-01 12:44:00,
2013-05-01 08:59:00,60.4,44.0,30.31,ESE,110,3.0,7.0,55,0.00,,,0.00,weatherlink.com 1.10,2013-05-01 12:59:00,
2013-05-01 09:14:00,60.9,44.0,30.32,East,83,2.0,6.0,55,0.00,,,0.00,weatherlink.com 1.10,2013-05-01 13:14:00,
2013-05-01 09:29:00,61.3,45.0,30.32,ENE,69,2.0,6.0,56,0.00,,,0.00,weatherlink.com 1.10,2013-05-01 13:29:00,
2013-05-01 09:44:00,62.1,46.0,30.32,ESE,109,2.0,8.0,57,0.00,,,0.00,weatherlink.com 1.10,2013-05-01 13:44:00,
2013-05-01 09:59:00,62.8,48.0,30.32,SSE,159,0.0,7.0,58,0.00,,,0.00,weatherlink.com 1.10,2013-05-01 13:59:00,
2013-05-01 10:14:00,63.5,49.0,30.32,East,91,3.0,6.0,59,0.00,,,0.00,weatherlink.com 1.10,2013-05-01 14:14:00,
2013-05-01 10:29:00,64.1,48.0,30.32,East,89,6.0,8.0,56,0.00,,,0.00,weatherlink.com 1.10,2013-05-01 14:29:00,
2013-05-01 10:44:00,65.0,47.0,30.32,NE,42,3.0,8.0,53,0.00,,,0.00,weatherlink.com 1.10,2013-05-01 14:44:00,
2013-05-01 10:59:00,65.6,48.0,30.32,SSE,167,1.0,8.0,53,0.00,,,0.00,weatherlink.com 1.10,2013-05-01 14:59:00,
2013-05-01 11:14:00,66.4,49.0,30.32,East,84,2.0,5.0,54,0.00,,,0.00,weatherlink.com 1.10,2013-05-01 15:14:00,
2013-05-01 11:29:00,66.9,49.0,30.32,West,273,0.0,8.0,52,0.00,,,0.00,weatherlink.com 1.10,2013-05-01 15:29:00,
2013-05-01 11:44:00,67.5,49.0,30.32,ENE,57,5.0,9.0,51,0.00,,,0.00,weatherlink.com 1.10,2013-05-01 15:44:00,
2013-05-01 11:59:00,67.9,47.0,30.32,NE,53,5.0,11.0,48,0.00,,,0.00,weatherlink.com 1.10,2013-05-01 15:59:00,
2013-05-01 12:14:00,68.8,46.0,30.31,ENE,64,4.0,7.0,44,0.00,,,0.00,weatherlink.com 1.10,2013-05-01 16:14:00,
2013-05-01 12:29:00,69.1,47.0,30.31,NNE,31,1.0,8.0,45,0.00,,,0.00,weatherlink.com 1.10,2013-05-01 16:29:00,
2013-05-01 12:44:00,69.6,47.0,30.31,WSW,246,1.0,7.0,45,0.00,,,0.00,weatherlink.com 1.10,2013-05-01 16:44:00,
2013-05-01 12:59:00,70.3,45.0,30.31,East,96,5.0,8.0,41,0.00,,,0.00,weatherlink.com 1.10,2013-05-01 16:59:00,
2013-05-01 13:14:00,70.6,44.0,30.30,NE,55,8.0,11.0,39,0.00,,,0.00,weatherlink.com 1.10,2013-05-01 17:14:00,
2013-05-01 13:29:00,71.3,46.0,30.30,ESE,108,4.0,10.0,40,0.00,,,0.00,weatherlink.com 1.10,2013-05-01 17:29:00,
2013-05-01 13:44:00,71.1,44.0,30.30,ESE,102,4.0,9.0,38,0.00,,,0.00,weatherlink.com 1.10,2013-05-01 17:44:00,
2013-05-01 13:59:00,71.9,43.0,30.30,ESE,105,5.0,9.0,36,0.00,,,0.00,weatherlink.com 1.10,2013-05-01 17:59:00,
2013-05-01 14:14:00,73.0,42.0,30.30,ESE,116,0.0,6.0,33,0.00,,,0.00,weatherlink.com 1.10,2013-05-01 18:14:00,
2013-05-01 14:29:00,72.4,42.0,30.30,East,79,9.0,10.0,33,0.00,,,0.00,weatherlink.com 1.10,2013-05-01 18:29:00,
2013-05-01 14:44:00,72.8,43.0,30.29,East,84,4.0,6.0,34,0.00,,,0.00,weatherlink.com 1.10,2013-05-01 18:44:00,
2013-05-01 15:00:00,74.4,43.0,30.29,SW,231,2.0,4.0,32,0.00,,,0.00,weatherlink.com 1.10,2013-05-01 19:00:00,
2013-05-01 15:15:00,73.6,43.0,30.29,ESE,121,2.0,6.0,34,0.00,,,0.00,weatherlink.com 1.10,2013-05-01 19:15:00,
2013-05-01 15:30:00,74.1,41.0,30.29,East,96,4.0,8.0,30,0.00,,,0.00,weatherlink.com 1.10,2013-05-01 19:30:00,
2013-05-01 15:45:00,74.6,44.0,30.28,South,174,0.0,8.0,33,0.00,,,0.00,weatherlink.com 1.10,2013-05-01 19:45:00,
2013-05-01 16:00:00,75.4,43.0,30.28,SE,133,1.0,5.0,31,0.00,,,0.00,weatherlink.com 1.10,2013-05-01 20:00:00,
2013-05-01 16:15:00,74.5,40.0,30.28,NNW,339,0.0,8.0,29,0.00,,,0.00,weatherlink.com 1.10,2013-05-01 20:15:00,
2013-05-01 16:30:00,75.6,39.0,30.28,SSW,201,0.0,3.0,27,0.00,,,0.00,weatherlink.com 1.10,2013-05-01 20:30:00,
2013-05-01 16:45:00,75.4,38.0,30.28,ENE,63,7.0,7.0,26,0.00,,,0.00,weatherlink.com 1.10,2013-05-01 20:45:00,
2013-05-01 17:00:00,75.0,39.0,30.29,East,99,0.0,6.0,27,0.00,,,0.00,weatherlink.com 1.10,2013-05-01 21:00:00,
2013-05-01 17:15:00,75.1,42.0,30.29,WNW,290,1.0,7.0,31,0.00,,,0.00,weatherlink.com 1.10,2013-05-01 21:15:00,
2013-05-01 17:30:00,75.0,38.0,30.29,ESE,117,2.0,7.0,26,0.00,,,0.00,weatherlink.com 1.10,2013-05-01 21:30:00,
2013-05-01 17:45:00,74.6,38.0,30.29,East,98,3.0,8.0,27,0.00,,,0.00,weatherlink.com 1.10,2013-05-01 21:45:00,
2013-05-01 18:00:00,74.1,38.0,30.29,NE,54,4.0,6.0,27,0.00,,,0.00,weatherlink.com 1.10,2013-05-01 22:00:00,
2013-05-01 18:15:00,73.7,39.0,30.30,ESE,103,0.0,6.0,28,0.00,,,0.00,weatherlink.com 1.10,2013-05-01 22:15:00,
2013-05-01 18:30:00,73.8,37.0,30.29,East,84,2.0,4.0,26,0.00,,,0.00,weatherlink.com 1.10,2013-05-01 22:30:00,
2013-05-01 18:45:00,72.6,38.0,30.29,ESE,113,0.0,6.0,28,0.00,,,0.00,weatherlink.com 1.10,2013-05-01 22:45:00,
2013-05-01 19:00:00,71.5,37.0,30.30,East,99,2.0,4.0,28,0.00,,,0.00,weatherlink.com 1.10,2013-05-01 23:00:00,
2013-05-01 19:15:00,70.7,38.0,30.30,NW,311,0.0,4.0,30,0.00,,,0.00,weatherlink.com 1.10,2013-05-01 23:15:00,
2013-05-01 19:30:00,69.9,36.0,30.30,NE,47,0.0,4.0,29,0.00,,,0.00,weatherlink.com 1.10,2013-05-01 23:30:00,
2013-05-01 19:45:00,68.9,35.0,30.30,SSE,153,0.0,3.0,29,0.00,,,0.00,weatherlink.com 1.10,2013-05-01 23:45:00,
2013-05-01 20:00:00,67.7,35.0,30.30,NE,41,1.0,5.0,30,0.00,,,0.00,weatherlink.com 1.10,2013-05-02 00:00:00,
2013-05-01 20:15:00,66.6,36.0,30.31,East,89,0.0,3.0,33,0.00,,,0.00,weatherlink.com 1.10,2013-05-02 00:15:00,
2013-05-01 20:30:00,64.6,40.0,30.31,ENE,74,0.0,2.0,40,0.00,,,0.00,weatherlink.com 1.10,2013-05-02 00:30:00,
2013-05-01 20:45:00,62.7,39.0,30.32,NNE,32,0.0,1.0,42,0.00,,,0.00,weatherlink.com 1.10,2013-05-02 00:45:00,
2013-05-01 21:00:00,60.8,39.0,30.32,NNE,30,0.0,0.0,44,0.00,,,0.00,weatherlink.com 1.10,2013-05-02 01:00:00,
2013-05-01 21:15:00,60.4,38.0,30.32,ESE,103,0.0,1.0,43,0.00,,,0.00,weatherlink.com 1.10,2013-05-02 01:15:00,
2013-05-01 21:30:00,59.3,39.0,30.33,NW,315,0.0,1.0,48,0.00,,,0.00,weatherlink.com 1.10,2013-05-02 01:30:00,
2013-05-01 21:45:00,59.4,38.0,30.34,NE,53,0.0,1.0,45,0.00,,,0.00,weatherlink.com 1.10,2013-05-02 01:45:00,
2013-05-01 22:00:00,58.7,35.0,30.33,ENE,61,0.0,1.0,42,0.00,,,0.00,weatherlink.com 1.10,2013-05-02 02:00:00,
2013-05-01 22:15:00,58.6,35.0,30.34,ENE,69,0.0,2.0,42,0.00,,,0.00,weatherlink.com 1.10,2013-05-02 02:15:00,
2013-05-01 22:30:00,57.1,40.0,30.34,ENE,72,0.0,1.0,53,0.00,,,0.00,weatherlink.com 1.10,2013-05-02 02:30:00,
2013-05-01 22:45:00,55.9,40.0,30.33,East,81,0.0,1.0,55,0.00,,,0.00,weatherlink.com 1.10,2013-05-02 02:45:00,
2013-05-01 23:00:00,55.8,39.0,30.33,ENE,66,0.0,1.0,54,0.00,,,0.00,weatherlink.com 1.10,2013-05-02 03:00:00,
2013-05-01 23:15:00,55.0,39.0,30.33,ENE,65,0.0,1.0,56,0.00,,,0.00,weatherlink.com 1.10,2013-05-02 03:15:00,
2013-05-01 23:30:00,54.0,40.0,30.33,NW,324,0.0,0.0,59,0.00,,,0.00,weatherlink.com 1.10,2013-05-02 03:30:00,
2013-05-01 23:45:00,53.0,40.0,30.33,ESE,103,0.0,1.0,62,0.00,,,0.00,weatherlink.com 1.10,2013-05-02 03:45:00,